Time;durP1;ratioP1;P1;durP2;ratioP2;P2;SDS_P1;SDS_P2;PMS_P1;PMS_P2;Temp;Humidity;BMP_temperature;BMP_pressure;BME280_temperature;BME280_humidity;BME280_pressure;Samples;Min_cycle;Max_cycle;Signal;HPM_P1;HPM_P2
2021/08/15 00:00:24;;;;;;;24.75;13.40;;;;;;;16.31;86.12;91177.38;5033487;28;20020;-87
2021/08/15 00:03:04;;;;;;;23.52;12.98;;;;;;;16.26;85.58;91172.44;5017637;28;20481;-85
2021/08/15 00:05:38;;;;;;;21.45;13.68;;;;;;;16.27;85.18;91167.94;5001852;28;20037;-85
2021/08/15 00:08:16;;;;;;;20.75;13.10;;;;;;;16.32;84.68;91164.97;5017467;28;20485;-85
2021/08/15 00:10:50;;;;;;;22.95;13.75;;;;;;;16.17;86.00;91164.03;5018799;28;20025;-85
2021/08/15 00:13:30;;;;;;;26.15;14.32;;;;;;;16.16;87.68;91167.78;5017886;28;20017;-85
2021/08/15 00:16:10;;;;;;;27.13;14.23;;;;;;;16.13;87.94;91164.00;5034004;28;20029;-85
2021/08/15 00:18:49;;;;;;;23.02;13.82;;;;;;;16.12;86.86;91167.00;5018635;28;20071;-85
2021/08/15 00:21:31;;;;;;;24.02;13.32;;;;;;;16.05;86.18;91157.13;5034758;28;20025;-85
2021/08/15 00:24:05;;;;;;;27.02;13.35;;;;;;;16.02;86.06;91157.84;5034060;28;20400;-85
2021/08/15 00:26:37;;;;;;;;;;;;;;;15.96;85.69;91161.88;5014661;28;20030;-86
2021/08/15 00:29:14;;;;;;;24.40;12.80;;;;;;;15.89;86.04;91159.91;5031330;28;19916;-86
2021/08/15 00:31:51;;;;;;;21.05;12.45;;;;;;;15.92;85.04;91159.19;4998700;28;20053;-85
2021/08/15 00:34:28;;;;;;;23.25;12.30;;;;;;;15.82;84.68;91159.81;5014991;28;20088;-85
2021/08/15 00:37:05;;;;;;;23.63;12.95;;;;;;;15.75;85.60;91163.09;5014060;28;20490;-85
2021/08/15 00:39:43;;;;;;;20.25;12.10;;;;;;;15.74;86.79;91158.94;5014084;28;20514;-85
2021/08/15 00:42:28;;;;;;;23.35;12.18;;;;;;;15.74;85.68;91145.81;5036679;28;20045;-88
2021/08/15 00:45:06;;;;;;;23.67;11.65;;;;;;;15.75;85.21;91149.94;5030777;28;20017;-85
2021/08/15 00:47:42;;;;;;;18.55;11.48;;;;;;;15.76;84.91;91151.47;5016717;28;20049;-87
2021/08/15 00:50:19;;;;;;;16.63;11.23;;;;;;;15.65;84.72;91142.63;5034959;28;20032;-87
2021/08/15 00:52:49;;;;;;;23.15;12.05;;;;;;;15.57;84.84;91143.66;5001271;28;20398;-85
2021/08/15 00:55:26;;;;;;;20.08;11.20;;;;;;;15.59;84.67;91136.19;5017201;28;20026;-85
2021/08/15 00:58:02;;;;;;;20.88;11.57;;;;;;;15.60;84.88;91140.31;5001866;28;20029;-85
2021/08/15 01:00:48;;;;;;;28.13;13.38;;;;;;;15.54;86.76;91136.47;5002062;28;20648;-86
2021/08/15 01:03:32;;;;;;;23.02;13.40;;;;;;;15.45;87.48;91139.34;5002625;28;20029;-85
2021/08/15 01:06:15;;;;;;;30.20;13.00;;;;;;;15.52;86.83;91138.69;5001582;28;20128;-85
2021/08/15 01:08:55;;;;;;;21.27;12.82;;;;;;;15.42;86.11;91134.78;5017107;28;20029;-85
2021/08/15 01:11:32;;;;;;;25.30;13.63;;;;;;;15.43;87.38;91132.91;5001530;28;20026;-85
2021/08/15 01:14:04;;;;;;;30.52;14.30;;;;;;;15.45;88.99;91120.22;5001923;28;20033;-87
2021/08/15 01:16:42;;;;;;;25.33;13.70;;;;;;;15.51;89.47;91126.66;5017275;28;20026;-85
2021/08/15 01:19:14;;;;;;;26.25;12.82;;;;;;;15.59;88.96;91125.69;5002010;28;20053;-85
2021/08/15 01:21:55;;;;;;;21.70;13.18;;;;;;;15.55;89.00;91119.63;5016672;28;20507;-85
2021/08/15 01:24:32;;;;;;;25.67;13.35;;;;;;;15.55;89.19;91117.00;5001485;28;20493;-85
2021/08/15 01:27:10;;;;;;;28.15;12.95;;;;;;;15.55;89.82;91130.13;5033981;28;20082;-85
2021/08/15 01:29:53;;;;;;;26.67;13.48;;;;;;;15.52;89.74;91125.56;5004552;28;20032;-85
2021/08/15 01:32:31;;;;;;;22.58;13.05;;;;;;;15.54;89.69;91118.06;5022506;28;20028;-85
2021/08/15 01:35:06;;;;;;;21.40;13.40;;;;;;;15.57;89.68;91116.63;5020910;28;20025;-85
2021/08/15 01:37:45;;;;;;;25.27;13.32;;;;;;;15.60;90.04;91113.28;5020418;28;20028;-87
2021/08/15 01:40:18;;;;;;;24.70;13.13;;;;;;;15.55;89.88;91119.63;5037152;28;20025;-85
2021/08/15 01:42:51;;;;;;;21.77;12.75;;;;;;;15.62;89.90;91114.47;5004514;28;20032;-87
2021/08/15 01:45:31;;;;;;;22.10;13.50;;;;;;;15.59;89.52;91109.91;5020629;28;20477;-85
2021/08/15 01:48:09;;;;;;;29.25;13.70;;;;;;;15.56;89.26;91105.38;5036220;28;20033;-86
2021/08/15 01:50:49;;;;;;;21.98;13.18;;;;;;;15.58;89.35;91108.38;5035962;28;20029;-85
2021/08/15 01:53:22;;;;;;;24.73;12.73;;;;;;;15.64;88.89;91109.59;5053619;28;20024;-85
2021/08/15 01:56:00;;;;;;;22.70;12.27;;;;;;;15.62;87.25;91105.81;5003902;28;20056;-85
2021/08/15 01:58:36;;;;;;;22.73;12.27;;;;;;;15.52;87.94;91104.56;5020793;28;20025;-85
2021/08/15 02:01:13;;;;;;;23.33;12.35;;;;;;;15.56;86.57;91097.47;5019430;28;20029;-85
2021/08/15 02:03:55;;;;;;;21.33;10.68;;;;;;;15.46;86.61;91103.34;5019755;28;20378;-85
2021/08/15 02:06:32;;;;;;;16.90;10.23;;;;;;;15.47;86.47;91102.97;5053677;28;20445;-85
2021/08/15 02:09:11;;;;;;;15.88;9.77;;;;;;;15.36;86.58;91091.56;5020546;28;20025;-85
2021/08/15 02:11:47;;;;;;;17.85;10.38;;;;;;;15.35;86.69;91095.28;5053578;28;20025;-85
2021/08/15 02:14:17;;;;;;;14.82;10.00;;;;;;;15.36;86.00;91101.31;5053569;28;20401;-85
2021/08/15 02:16:58;;;;;;;22.02;11.30;;;;;;;15.24;86.53;91095.13;5019120;28;20021;-85
2021/08/15 02:19:39;;;;;;;19.35;10.70;;;;;;;15.16;86.22;91096.13;5036951;28;20025;-87
2021/08/15 02:22:14;;;;;;;18.80;10.60;;;;;;;15.06;86.43;91091.47;5035744;28;20032;-85
2021/08/15 02:24:54;;;;;;;23.05;11.30;;;;;;;14.96;87.39;91092.06;5035800;28;20028;-85
2021/08/15 02:27:31;;;;;;;24.23;11.73;;;;;;;14.91;87.70;91087.88;5003284;28;20030;-85
2021/08/15 02:30:11;;;;;;;21.88;11.27;;;;;;;14.90;87.69;91083.72;5052992;28;20100;-85
2021/08/15 02:32:48;;;;;;;21.00;11.57;;;;;;;14.96;88.33;91078.94;5035665;28;20032;-85
2021/08/15 02:35:33;;;;;;;24.13;12.60;;;;;;;15.02;89.62;91072.28;5020750;28;20044;-85
2021/08/15 02:38:07;;;;;;;23.55;12.38;;;;;;;15.12;89.80;91070.94;5021053;28;20024;-85
2021/08/15 02:40:41;;;;;;;;;;;;;;;15.32;90.88;91074.25;5035769;28;20028;-85
2021/08/15 02:43:21;;;;;;;30.58;12.60;;;;;;;15.28;90.73;91074.94;5035568;28;20315;-85
2021/08/15 02:45:58;;;;;;;27.70;14.00;;;;;;;15.29;91.50;91073.81;5036478;28;20033;-85
2021/08/15 02:48:36;;;;;;;25.98;13.13;;;;;;;15.40;91.31;91081.09;5052843;28;20458;-85
2021/08/15 02:51:12;;;;;;;28.65;13.70;;;;;;;15.32;92.39;91074.25;5019831;28;20025;-85
2021/08/15 02:53:53;;;;;;;25.13;13.65;;;;;;;15.29;91.54;91079.06;5035812;28;20389;-85
2021/08/15 02:56:31;;;;;;;24.13;13.18;;;;;;;15.26;91.64;91069.31;5019549;28;20036;-85
2021/08/15 02:59:10;;;;;;;25.02;12.88;;;;;;;15.23;91.15;91067.38;5019377;28;20032;-86
2021/08/15 03:01:47;;;;;;;21.48;12.70;;;;;;;15.30;90.12;91067.47;5018857;28;20035;-85
2021/08/15 03:04:27;;;;;;;20.52;12.23;;;;;;;15.29;89.98;91071.19;5035588;28;20494;-87
2021/08/15 03:07:05;;;;;;;23.45;12.32;;;;;;;15.22;90.12;91065.09;5018829;28;20082;-85
2021/08/15 03:09:45;;;;;;;22.75;12.93;;;;;;;15.25;89.17;91065.13;5051537;28;20400;-85
2021/08/15 03:12:24;;;;;;;24.75;14.38;;;;;;;15.20;90.35;91054.94;5019449;28;20104;-86
2021/08/15 03:15:00;;;;;;;29.35;13.80;;;;;;;15.22;91.19;91060.59;5035207;28;20021;-85
2021/08/15 03:17:33;;;;;;;23.58;12.93;;;;;;;15.32;90.67;91053.25;5034572;28;20485;-85
2021/08/15 03:20:13;;;;;;;22.85;13.05;;;;;;;15.20;90.73;91041.81;5034848;28;20103;-84
2021/08/15 03:22:53;;;;;;;30.33;14.43;;;;;;;15.21;91.38;91038.09;5035696;28;20056;-85
2021/08/15 03:25:28;;;;;;;26.40;13.95;;;;;;;15.27;92.17;91035.94;5034923;28;20029;-85
2021/08/15 03:28:14;;;;;;;31.52;15.20;;;;;;;15.40;92.17;91031.22;5018066;28;20025;-85
2021/08/15 03:30:53;;;;;;;27.65;14.27;;;;;;;15.32;92.14;91038.25;5051898;28;20025;-85
2021/08/15 03:33:29;;;;;;;25.00;14.60;;;;;;;15.38;91.98;91054.47;5052138;28;20025;-85
2021/08/15 03:36:10;;;;;;;28.30;13.70;;;;;;;15.32;92.24;91048.75;5034646;28;20024;-85
2021/08/15 03:38:49;;;;;;;28.90;13.75;;;;;;;15.26;90.82;91048.31;5034457;28;20489;-85
2021/08/15 03:41:24;;;;;;;22.73;11.63;;;;;;;15.22;89.61;91049.34;5115190;22;20132;-88
2021/08/15 03:44:06;;;;;;;24.90;12.15;;;;;;;15.20;89.10;91041.06;5053790;28;20017;-87
2021/08/15 03:46:41;;;;;;;23.88;13.02;;;;;;;15.16;89.54;91037.63;5071227;28;20052;-87
2021/08/15 03:49:18;;;;;;;27.90;13.05;;;;;;;15.11;89.77;91041.31;5054209;28;20484;-87
2021/08/15 03:51:58;;;;;;;22.67;11.80;;;;;;;15.07;89.41;91028.13;5017119;28;20032;-87
2021/08/15 03:54:34;;;;;;;23.38;13.35;;;;;;;15.18;90.96;91030.16;5034021;28;20087;-88
2021/08/15 03:57:13;;;;;;;26.80;13.75;;;;;;;15.16;92.04;91035.78;5033749;28;20029;-87
2021/08/15 03:59:51;;;;;;;30.73;14.70;;;;;;;15.26;93.86;91027.28;5033516;28;20509;-87
2021/08/15 04:02:25;;;;;;;31.23;14.43;;;;;;;15.40;93.03;91028.59;5033712;28;20083;-87
2021/08/15 04:05:05;;;;;;;;;;;;;;;15.38;93.33;91021.06;5034239;28;20057;-87
2021/08/15 04:07:46;;;;;;;21.30;12.07;;;;;;;15.16;89.87;91014.78;5051269;28;19909;-87
2021/08/15 04:10:26;;;;;;;25.23;11.85;;;;;;;15.06;89.34;91025.88;5032626;28;20024;-88
2021/08/15 04:13:04;;;;;;;18.02;11.30;;;;;;;14.81;87.61;91021.00;5017052;28;20025;-87
2021/08/15 04:15:41;;;;;;;25.35;13.30;;;;;;;14.78;90.13;91019.06;5033455;28;20021;-88
2021/08/15 04:18:20;;;;;;;25.77;14.73;;;;;;;14.90;91.29;91019.97;5033721;28;20021;-88
2021/08/15 04:20:58;;;;;;;28.42;16.25;;;;;;;15.04;93.80;91020.94;5031890;28;20025;-87
2021/08/15 04:23:34;;;;;;;25.48;14.65;;;;;;;14.98;92.32;91026.84;5053109;28;20047;-87
2021/08/15 04:26:17;;;;;;;28.80;13.27;;;;;;;14.98;92.40;91021.59;5037552;28;20021;-88
2021/08/15 04:28:52;;;;;;;23.95;13.32;;;;;;;14.96;91.29;91021.22;5057262;28;20033;-88
2021/08/15 04:31:26;;;;;;;21.83;13.48;;;;;;;14.91;91.20;91018.88;5079056;28;20031;-89
2021/08/15 04:34:07;;;;;;;19.52;12.55;;;;;;;15.01;90.21;91020.91;5022883;28;20504;-88
2021/08/15 04:36:44;;;;;;;20.63;11.95;;;;;;;14.96;89.77;91021.97;5020261;28;20028;-88
2021/08/15 04:39:16;;;;;;;25.70;13.18;;;;;;;14.98;90.67;91021.59;5020622;28;20021;-88
2021/08/15 04:41:58;;;;;;;25.33;13.90;;;;;;;14.96;91.13;91018.59;5020544;28;20029;-88
2021/08/15 04:44:38;;;;;;;30.60;14.27;;;;;;;14.98;91.25;91013.72;5037879;28;20111;-88
2021/08/15 04:47:21;;;;;;;24.08;12.35;;;;;;;14.95;90.72;91014.47;5038063;28;20362;-88
2021/08/15 04:49:58;;;;;;;23.73;14.20;;;;;;;15.04;91.28;91005.22;5036019;28;20105;-87
2021/08/15 04:52:38;;;;;;;25.50;14.50;;;;;;;15.06;92.04;91008.25;5052381;28;20020;-87
2021/08/15 04:55:12;;;;;;;21.20;13.60;;;;;;;15.16;91.58;91006.91;5036803;28;20029;-87
2021/08/15 04:57:48;;;;;;;24.65;13.15;;;;;;;15.19;90.14;91008.78;5036556;28;20028;-87
2021/08/15 05:00:27;;;;;;;18.20;12.00;;;;;;;15.15;89.64;91013.25;5019426;28;20036;-88
2021/08/15 05:03:07;;;;;;;24.90;13.48;;;;;;;15.19;90.31;91008.78;5052860;28;20557;-87
2021/08/15 05:05:44;;;;;;;23.23;13.98;;;;;;;15.16;90.84;91009.53;5036654;28;20108;-87
2021/08/15 05:08:26;;;;;;;21.50;13.63;;;;;;;15.21;91.02;91011.84;5035735;28;20025;-87
2021/08/15 05:11:04;;;;;;;19.80;13.48;;;;;;;15.25;91.01;91004.75;5035970;28;20017;-88
2021/08/15 05:13:44;;;;;;;20.30;12.48;;;;;;;15.37;90.70;91003.81;5035811;28;20032;-87
2021/08/15 05:16:23;;;;;;;19.05;12.00;;;;;;;15.48;89.23;91009.97;5036214;28;20028;-88
2021/08/15 05:19:03;;;;;;;19.25;10.68;;;;;;;15.54;87.76;91011.16;5053711;28;20028;-88
2021/08/15 05:21:31;;;;;;;18.10;10.75;;;;;;;15.48;87.98;91007.34;5050249;28;20029;-87
2021/08/15 05:24:16;;;;;;;18.20;11.30;;;;;;;15.44;88.93;91009.16;5019086;28;20029;-87
2021/08/15 05:26:54;;;;;;;22.02;10.55;;;;;;;15.47;89.55;91010.31;5037972;28;20037;-87
2021/08/15 05:29:26;;;;;;;20.40;11.57;;;;;;;15.51;88.83;91009.25;5035585;28;20021;-87
2021/08/15 05:32:01;;;;;;;24.08;12.93;;;;;;;15.52;89.46;91005.50;5035392;28;20507;-88
2021/08/15 05:34:37;;;;;;;;;;;;;;;15.69;89.46;91009.50;5020518;28;20021;-87
2021/08/15 05:37:16;;;;;;;25.23;12.48;;;;;;;15.72;89.67;91014.06;5035428;28;20281;-88
2021/08/15 05:39:55;;;;;;;22.63;12.85;;;;;;;15.79;89.91;91018.63;5035252;28;20028;-88
2021/08/15 05:42:32;;;;;;;20.48;11.95;;;;;;;15.88;89.78;91015.75;5019781;28;20028;-87
2021/08/15 05:45:13;;;;;;;24.67;13.50;;;;;;;15.96;89.82;91004.94;5034986;28;20505;-87
2021/08/15 05:47:49;;;;;;;26.48;13.73;;;;;;;15.98;90.23;91009.84;5019217;28;20566;-87
2021/08/15 05:50:28;;;;;;;23.80;12.68;;;;;;;16.01;89.75;91007.25;5019165;28;20032;-87
2021/08/15 05:53:05;;;;;;;23.48;12.13;;;;;;;16.08;89.60;91005.81;5020007;28;20028;-87
2021/08/15 05:55:42;;;;;;;21.10;13.85;;;;;;;16.14;90.04;91013.03;5035374;28;20021;-88
2021/08/15 05:58:22;;;;;;;22.08;13.55;;;;;;;16.28;90.04;91016.94;5019577;28;20024;-87
2021/08/15 06:00:55;;;;;;;23.02;12.73;;;;;;;16.45;89.25;91016.34;5019305;28;20025;-88
2021/08/15 06:03:38;;;;;;;24.77;13.27;;;;;;;16.53;89.50;91001.41;5018716;28;20068;-87
2021/08/15 06:06:20;;;;;;;20.95;13.00;;;;;;;16.63;89.20;91004.13;5036427;28;20512;-88
2021/08/15 06:09:00;;;;;;;24.60;13.25;;;;;;;16.71;90.08;91000.44;5018445;28;20037;-87
2021/08/15 06:11:37;;;;;;;17.85;11.88;;;;;;;16.69;88.12;90994.78;5035679;28;20025;-88
2021/08/15 06:14:14;;;;;;;20.30;11.95;;;;;;;16.57;88.28;90981.91;5034737;28;20035;-88
2021/08/15 06:16:54;;;;;;;22.55;12.65;;;;;;;16.83;88.36;90982.91;5034745;28;20398;-87
2021/08/15 06:19:34;;;;;;;27.20;14.77;;;;;;;17.06;89.52;90993.97;5019141;28;20029;-87
2021/08/15 06:22:08;;;;;;;28.20;14.43;;;;;;;17.16;90.08;90995.16;5018956;28;20086;-88
2021/08/15 06:24:40;;;;;;;;;;;;;;;17.28;89.92;91002.00;5019693;28;20541;-87
2021/08/15 06:27:12;;;;;;;24.90;13.77;;;;;;;17.38;90.29;90996.81;5014765;28;20391;-88
2021/08/15 06:29:53;;;;;;;26.08;14.93;;;;;;;17.52;90.17;90995.38;4998722;28;20037;-88
2021/08/15 06:32:32;;;;;;;26.52;14.63;;;;;;;17.66;90.23;90992.81;5014531;28;20150;-87
2021/08/15 06:35:10;;;;;;;24.83;13.65;;;;;;;17.81;89.56;90993.69;4999988;28;20521;-87
2021/08/15 06:37:50;;;;;;;26.30;14.43;;;;;;;18.00;88.95;90993.41;4983416;28;20033;-87
2021/08/15 06:40:33;;;;;;;23.60;14.32;;;;;;;18.22;88.34;90988.19;5014311;28;20482;-87
2021/08/15 06:43:14;;;;;;;23.25;12.77;;;;;;;18.35;89.20;90992.00;4984118;28;20509;-87
2021/08/15 06:45:48;;;;;;;25.92;15.15;;;;;;;18.40;89.43;90999.53;5015310;28;20029;-87
2021/08/15 06:48:26;;;;;;;28.25;14.38;;;;;;;18.60;88.67;90989.41;5017151;28;20409;-87
2021/08/15 06:51:04;;;;;;;28.15;15.40;;;;;;;18.72;87.55;90990.94;5013536;28;20029;-87
2021/08/15 06:53:46;;;;;;;30.15;16.25;;;;;;;18.98;87.21;90990.59;4999594;28;20021;-87
2021/08/15 06:56:24;;;;;;;34.40;15.70;;;;;;;19.24;88.32;90986.06;5031941;28;20029;-87
2021/08/15 06:59:05;;;;;;;32.67;14.88;;;;;;;19.28;87.99;90981.53;4982891;28;20029;-86
2021/08/15 07:01:41;;;;;;;27.23;15.57;;;;;;;19.35;89.23;90986.78;5000281;28;20041;-87
2021/08/15 07:04:14;;;;;;;27.25;15.63;;;;;;;19.41;88.17;90987.94;5015367;28;20183;-85
2021/08/15 07:06:57;;;;;;;27.87;15.17;;;;;;;19.42;87.63;90986.03;4998071;28;20108;-86
2021/08/15 07:09:42;;;;;;;29.55;15.90;;;;;;;19.54;87.01;90989.03;5012872;28;20406;-87
2021/08/15 07:12:19;;;;;;;31.90;15.02;;;;;;;19.80;86.92;90987.84;5031834;28;20501;-88
2021/08/15 07:14:58;;;;;;;28.98;14.30;;;;;;;19.96;84.97;90976.84;4998311;28;20022;-87
2021/08/15 07:17:42;;;;;;;29.30;15.27;;;;;;;20.11;84.44;90988.13;5014614;28;20057;-87
2021/08/15 07:20:17;;;;;;;31.23;15.57;;;;;;;20.15;82.54;90983.59;5000040;28;20021;-87
2021/08/15 07:22:52;;;;;;;24.23;14.57;;;;;;;20.28;83.52;90976.72;5014962;28;20037;-88
2021/08/15 07:25:28;;;;;;;32.17;14.85;;;;;;;20.51;82.48;90984.19;5033742;28;20029;-88
2021/08/15 07:28:06;;;;;;;25.35;14.32;;;;;;;20.57;81.47;90986.44;5033963;28;20021;-89
2021/08/15 07:30:41;;;;;;;25.27;14.48;;;;;;;20.61;81.96;90974.66;5048359;28;20032;-89
2021/08/15 07:33:20;;;;;;;32.60;14.95;;;;;;;20.79;80.16;90974.56;5034037;28;20492;-89
2021/08/15 07:35:57;;;;;;;41.45;14.70;;;;;;;20.69;81.54;90962.88;5034209;28;20028;-88
2021/08/15 07:38:34;;;;;;;25.23;14.45;;;;;;;20.99;79.26;90970.25;5034156;28;20071;-89
2021/08/15 07:41:12;;;;;;;26.05;14.35;;;;;;;21.03;80.58;90959.63;5033575;28;20033;-89
2021/08/15 07:43:50;;;;;;;27.48;15.15;;;;;;;21.04;81.82;90968.31;5034569;28;20042;-89
2021/08/15 07:46:29;;;;;;;30.45;14.50;;;;;;;21.11;80.44;90960.31;5060004;28;20024;-91
2021/08/15 07:49:06;;;;;;;27.95;13.85;;;;;;;21.19;81.67;90956.44;5058935;28;20088;-89
2021/08/15 07:51:39;;;;;;;26.85;13.93;;;;;;;21.22;78.92;90955.66;5016726;28;20036;-89
2021/08/15 07:54:22;;;;;;;27.45;13.63;;;;;;;21.44;78.80;90959.66;5012292;28;20034;-89
2021/08/15 07:56:58;;;;;;;30.88;14.27;;;;;;;21.58;76.26;90965.97;5017686;28;20021;-89
2021/08/15 07:59:35;;;;;;;35.22;14.68;;;;;;;21.75;78.22;90966.94;5018382;28;20112;-89
2021/08/15 08:02:12;;;;;;;30.13;13.73;;;;;;;21.83;76.51;90966.44;5034112;28;20029;-89
2021/08/15 08:04:49;;;;;;;27.40;12.85;;;;;;;21.89;75.44;90964.88;5002977;28;20022;-89
2021/08/15 08:07:28;;;;;;;25.27;13.52;;;;;;;21.99;75.01;90973.88;5002401;28;20177;-89
2021/08/15 08:10:02;;;;;;;27.25;13.70;;;;;;;22.19;75.32;90966.84;5017053;28;20112;-89
2021/08/15 08:12:45;;;;;;;25.25;13.27;;;;;;;22.22;73.36;90970.56;5017226;28;20029;-90
2021/08/15 08:15:25;;;;;;;23.98;12.23;;;;;;;22.48;72.94;90971.03;5001508;28;20030;-89
2021/08/15 08:17:53;;;;;;;26.70;13.50;;;;;;;22.66;71.60;90968.88;5036401;28;20032;-87
2021/08/15 08:20:21;;;;;;;28.80;13.13;;;;;;;22.87;71.50;90963.25;5027885;28;20059;-87
2021/08/15 08:22:56;;;;;;;25.15;12.73;;;;;;;23.18;73.01;90960.53;5021686;28;20035;-87
2021/08/15 08:25:21;;;;;;;28.40;12.73;;;;;;;23.42;70.70;90952.53;5022216;28;20024;-86
2021/08/15 08:27:58;;;;;;;28.48;15.55;;;;;;;23.60;69.52;90948.44;5030683;28;20083;-88
2021/08/15 08:30:35;;;;;;;27.75;12.95;;;;;;;23.43;68.07;90946.84;4995287;28;20025;-88
2021/08/15 08:33:07;;;;;;;24.73;12.30;;;;;;;23.36;68.55;90941.63;5038443;28;20362;-89
2021/08/15 08:35:40;;;;;;;34.78;14.55;;;;;;;23.46;70.06;90950.56;5029488;28;20028;-88
2021/08/15 08:38:16;;;;;;;35.00;12.77;;;;;;;23.60;68.13;90942.34;5020502;28;20472;-89
2021/08/15 08:40:59;;;;;;;25.85;12.38;;;;;;;23.74;69.35;90933.38;5036627;28;20108;-91
2021/08/15 08:43:36;;;;;;;32.08;12.30;;;;;;;23.60;67.64;90926.38;5038129;28;20025;-88
2021/08/15 08:46:12;;;;;;;26.08;12.50;;;;;;;23.65;67.22;90922.50;5021692;28;20079;-89
2021/08/15 08:48:47;;;;;;;23.75;12.25;;;;;;;23.76;69.49;90929.16;5021055;28;20420;-90
2021/08/15 08:51:33;;;;;;;22.05;12.23;;;;;;;23.84;69.22;90927.84;5019647;28;20025;-89
2021/08/15 08:54:15;;;;;;;27.67;12.43;;;;;;;23.88;67.40;90927.03;5037665;28;20028;-88
2021/08/15 08:56:54;;;;;;;29.95;11.57;;;;;;;24.09;66.57;90932.69;5020678;28;20029;-88
2021/08/15 08:59:29;;;;;;;26.33;11.50;;;;;;;24.23;64.59;90942.28;5035602;28;20028;-88
2021/08/15 09:02:12;;;;;;;25.50;11.30;;;;;;;24.31;66.17;90949.00;5053746;28;20103;-88
2021/08/15 09:04:52;;;;;;;24.33;11.25;;;;;;;24.63;64.66;90947.59;5037673;28;20017;-89
2021/08/15 09:07:33;;;;;;;23.73;11.30;;;;;;;24.78;63.84;90943.44;5020292;28;20025;-88
2021/08/15 09:10:03;;;;;;;24.88;11.27;;;;;;;24.70;65.02;90939.44;5019280;28;20211;-88
2021/08/15 09:12:53;;;;;;;25.42;12.02;;;;;;;24.55;64.52;90952.31;5019360;28;20033;-90
2021/08/15 09:15:26;;;;;;;26.50;11.20;;;;;;;24.32;62.90;90947.81;5005629;28;20025;-88
2021/08/15 09:18:08;;;;;;;24.70;11.15;;;;;;;24.15;63.21;90938.28;5020397;28;20025;-88
2021/08/15 09:20:41;;;;;;;26.25;11.88;;;;;;;24.12;63.24;90944.44;5019237;28;20045;-88
2021/08/15 09:23:31;;;;;;;23.02;11.05;;;;;;;24.20;64.37;90945.78;5019380;28;20024;-88
2021/08/15 09:26:21;;;;;;;23.85;11.68;;;;;;;24.40;65.42;90929.81;5016607;28;20033;-88
2021/08/15 09:28:57;;;;;;;23.10;10.35;;;;;;;24.45;61.89;90909.91;4999764;28;20025;-88
2021/08/15 09:31:35;;;;;;;25.67;10.98;;;;;;;24.45;61.99;90905.38;5000486;28;20108;-89
2021/08/15 09:34:16;;;;;;;23.23;10.70;;;;;;;24.67;64.78;90910.22;5000561;28;20025;-87
2021/08/15 09:37:03;;;;;;;26.42;11.73;;;;;;;24.63;61.75;90901.53;5014115;28;20041;-88
2021/08/15 09:39:47;;;;;;;21.60;10.57;;;;;;;24.83;62.42;90909.47;5017355;28;20029;-89
2021/08/15 09:42:22;;;;;;;21.80;10.70;;;;;;;24.84;63.58;90914.41;5060288;22;20446;-86
2021/08/15 09:44:56;;;;;;;25.40;10.32;;;;;;;25.11;62.96;90914.16;5056292;28;20024;-85
2021/08/15 09:47:34;;;;;;;24.08;10.52;;;;;;;25.23;59.56;90913.50;5058809;28;20024;-84
2021/08/15 09:50:21;;;;;;;22.33;9.93;;;;;;;25.21;59.56;90920.41;5056427;28;20020;-85
2021/08/15 09:52:57;;;;;;;25.77;9.65;;;;;;;25.54;61.56;90915.00;5038469;28;20021;-86
2021/08/15 09:55:57;;;;;;;26.52;10.20;;;;;;;25.64;58.02;90901.38;5037681;28;20021;-84
2021/08/15 09:58:36;;;;;;;21.65;9.57;;;;;;;25.71;56.91;90905.78;5039416;28;20103;-84
2021/08/15 10:01:13;;;;;;;28.85;9.50;;;;;;;25.71;55.68;90909.19;5028165;28;20032;-85
2021/08/15 10:03:44;;;;;;;23.95;9.75;;;;;;;25.72;55.93;90910.72;5074197;28;20086;-86
2021/08/15 10:06:26;;;;;;;21.05;9.63;;;;;;;25.77;57.01;90908.69;5032464;28;20025;-86
2021/08/15 10:09:11;;;;;;;20.00;9.05;;;;;;;25.87;55.73;90899.69;5035735;28;20440;-86
2021/08/15 10:11:46;;;;;;;24.52;9.13;;;;;;;25.52;53.63;90888.75;5037705;28;20558;-85
2021/08/15 10:14:18;;;;;;;22.77;9.30;;;;;;;25.71;56.12;90892.44;5035933;28;20211;-85
2021/08/15 10:17:12;;;;;;;23.95;9.30;;;;;;;25.99;54.03;90886.34;5053514;28;20029;-85
2021/08/15 10:19:59;;;;;;;;;;;;;;;26.14;52.87;90873.34;5037149;28;20025;-86
2021/08/15 10:22:38;;;;;;;23.42;8.77;;;;;;;26.08;49.41;90872.41;5059496;28;19909;-85
2021/08/15 10:25:18;;;;;;;20.80;8.35;;;;;;;26.00;51.86;90873.75;5039547;28;20025;-86
2021/08/15 10:27:57;;;;;;;26.15;8.18;;;;;;;26.03;51.63;90880.91;5017722;28;20033;-85
2021/08/15 10:30:29;;;;;;;26.88;8.35;;;;;;;26.04;47.89;90879.00;5002768;28;20042;-85
2021/08/15 10:33:15;;;;;;;33.05;8.02;;;;;;;25.84;48.86;90887.19;5036599;28;20033;-86
2021/08/15 10:35:43;;;;;;;26.67;7.80;;;;;;;25.70;48.99;90881.03;5055930;28;20052;-84
2021/08/15 10:38:28;;;;;;;30.25;7.47;;;;;;;25.77;50.10;90872.09;5021026;28;20056;-85
2021/08/15 10:40:59;;;;;;;27.90;8.45;;;;;;;25.66;48.60;90887.63;5054029;28;20040;-85
2021/08/15 10:43:38;;;;;;;30.23;8.57;;;;;;;25.63;48.78;90881.22;5038862;28;20309;-87
2021/08/15 10:46:16;;;;;;;25.33;8.13;;;;;;;25.67;48.96;90876.53;5053847;28;20100;-85
2021/08/15 10:49:09;;;;;;;19.80;7.63;;;;;;;26.01;49.73;90856.59;5035799;28;20025;-86
2021/08/15 10:51:58;;;;;;;19.77;7.70;;;;;;;26.00;50.84;90855.06;5002148;28;20025;-88
2021/08/15 10:54:27;;;;;;;28.60;7.93;;;;;;;25.99;50.31;90850.91;5033785;28;20044;-85
2021/08/15 10:57:06;;;;;;;26.88;8.68;;;;;;;26.05;49.59;90851.88;5033911;28;20060;-84
2021/08/15 10:59:44;;;;;;;27.30;7.60;;;;;;;25.81;51.20;90856.75;5000055;28;20036;-88
2021/08/15 11:02:18;;;;;;;24.85;7.95;;;;;;;25.94;50.45;90851.44;5015085;28;20052;-86
2021/08/15 11:05:06;;;;;;;20.38;7.70;;;;;;;25.85;50.50;90848.66;5001615;28;20081;-86
2021/08/15 11:07:48;;;;;;;28.90;8.15;;;;;;;25.80;50.80;90849.19;5016538;28;20405;-89
2021/08/15 11:10:25;;;;;;;21.58;7.70;;;;;;;25.67;49.80;90847.19;5010855;28;20032;-86
2021/08/15 11:13:36;;;;;;;25.23;8.07;;;;;;;25.73;50.98;90864.19;5026562;28;20108;-84
2021/08/15 11:16:36;;;;;;;31.63;8.35;;;;;;;25.69;51.46;90863.53;4999524;28;20237;-89
2021/08/15 11:19:09;;;;;;;25.05;8.82;;;;;;;25.79;50.46;90856.41;5029833;28;20496;-87
2021/08/15 11:22:19;;;;;;;26.63;8.55;;;;;;;25.96;49.17;90846.41;5061819;28;20400;-86
2021/08/15 11:24:58;;;;;;;27.70;9.13;;;;;;;25.95;50.10;90858.28;5048030;28;20036;-88
2021/08/15 11:27:39;;;;;;;24.55;8.85;;;;;;;25.82;49.17;90852.91;5045864;28;20258;-86
2021/08/15 11:30:18;;;;;;;22.63;7.72;;;;;;;26.11;51.42;90860.09;5028960;28;20053;-87
2021/08/15 11:32:58;;;;;;;23.63;7.30;;;;;;;26.21;52.25;90851.78;5014459;28;20025;-88
2021/08/15 11:35:50;;;;;;;25.35;7.18;;;;;;;26.15;51.19;90844.75;5029473;28;20036;-88
2021/08/15 11:38:27;;;;;;;26.80;7.20;;;;;;;25.50;52.03;90840.41;5040611;28;20025;-87
2021/08/15 11:41:02;;;;;;;20.45;7.30;;;;;;;25.66;53.35;90836.94;5044749;28;20393;-85
2021/08/15 11:43:41;;;;;;;31.52;8.25;;;;;;;25.91;53.13;90836.28;5061719;28;20032;-86
2021/08/15 11:46:13;;;;;;;30.33;8.35;;;;;;;25.99;52.97;90834.88;5063083;28;20077;-87
2021/08/15 11:48:45;;;;;;;28.33;7.82;;;;;;;26.22;54.29;90833.84;5041517;28;20025;-84
2021/08/15 11:51:16;;;;;;;30.98;9.55;;;;;;;26.27;50.58;90832.56;5025481;28;20025;-84
2021/08/15 11:53:57;;;;;;;34.90;9.35;;;;;;;26.23;50.69;90838.75;5042436;28;20025;-87
2021/08/15 11:56:34;;;;;;;28.42;9.52;;;;;;;26.25;51.90;90840.25;5036403;28;20497;-85
2021/08/15 11:59:13;;;;;;;33.97;10.00;;;;;;;26.25;51.43;90840.25;5020360;28;20112;-85
2021/08/15 12:01:44;;;;;;;32.88;10.18;;;;;;;26.16;52.08;90835.56;5034946;28;20546;-85
2021/08/15 12:04:16;;;;;;;25.25;9.13;;;;;;;26.21;53.15;90833.09;5018245;28;20120;-85
2021/08/15 12:06:49;;;;;;;31.40;9.60;;;;;;;26.28;52.76;90834.78;5034171;28;20477;-85
2021/08/15 12:09:29;;;;;;;;;;;;;;;26.19;52.06;90842.72;5036194;28;20036;-85
2021/08/15 12:12:04;;;;;;;28.67;11.20;;;;;;;26.27;51.13;90837.91;5036134;28;20416;-85